createdAt,value
2022-12-01T00:00:05.448Z,0
2022-12-01T00:01:05.477Z,0
2022-12-01T00:02:10.635Z,0
2022-12-01T00:03:06.082Z,0
2022-12-01T00:04:05.517Z,0
2022-12-01T00:05:05.501Z,0
2022-12-01T00:06:05.515Z,0
2022-12-01T00:07:05.548Z,0
2022-12-01T00:08:05.838Z,0
2022-12-01T00:09:05.524Z,0
2022-12-01T00:10:05.479Z,0
2022-12-01T00:11:05.498Z,0
2022-12-01T00:12:05.510Z,0
2022-12-01T00:13:06.566Z,0
2022-12-01T00:14:05.494Z,0
2022-12-01T00:15:05.557Z,0
2022-12-01T00:16:05.841Z,0
2022-12-01T00:17:05.604Z,0
2022-12-01T00:18:08.554Z,0
2022-12-01T00:19:05.503Z,0
2022-12-01T00:20:05.526Z,0
2022-12-01T00:21:05.522Z,0
2022-12-01T00:22:05.505Z,0
2022-12-01T00:23:05.518Z,0
2022-12-01T00:24:08.660Z,0
2022-12-01T00:25:05.517Z,0
2022-12-01T00:26:05.538Z,0
2022-12-01T00:27:05.606Z,0
2022-12-01T00:28:05.533Z,0
2022-12-01T00:29:08.574Z,0
2022-12-01T00:30:05.522Z,0
2022-12-01T00:31:05.507Z,0
2022-12-01T00:32:06.047Z,0
2022-12-01T00:33:05.520Z,0
2022-12-01T00:34:11.744Z,0
2022-12-01T00:35:05.529Z,0
2022-12-01T00:36:05.558Z,0
2022-12-01T00:37:05.557Z,0
2022-12-01T00:38:05.536Z,0
2022-12-01T00:39:05.586Z,0
2022-12-01T00:40:05.563Z,0
2022-12-01T00:41:05.573Z,0
2022-12-01T00:42:13.015Z,0
2022-12-01T00:43:05.533Z,0
2022-12-01T00:44:05.530Z,0
2022-12-01T00:45:05.530Z,0
2022-12-01T00:46:06.052Z,0
2022-12-01T00:47:05.582Z,0
2022-12-01T00:48:05.556Z,0
2022-12-01T00:49:05.543Z,0
2022-12-01T00:50:05.557Z,0
2022-12-01T00:51:05.623Z,0
2022-12-01T00:52:05.543Z,0
2022-12-01T00:53:05.576Z,0
2022-12-01T00:54:05.545Z,0
2022-12-01T00:55:05.584Z,0
2022-12-01T00:56:08.438Z,0
2022-12-01T00:57:05.631Z,0
2022-12-01T00:58:05.585Z,0
2022-12-01T00:59:05.572Z,0
2022-12-01T01:00:05.580Z,0
2022-12-01T01:01:06.057Z,0
2022-12-01T01:02:05.694Z,0
2022-12-01T01:03:05.572Z,0
2022-12-01T01:04:05.583Z,0
2022-12-01T01:05:05.632Z,0
2022-12-01T01:06:05.660Z,0
2022-12-01T01:07:08.681Z,0
2022-12-01T01:08:05.849Z,0
2022-12-01T01:09:05.584Z,0
2022-12-01T01:10:05.588Z,0
2022-12-01T01:11:05.686Z,0
2022-12-01T01:12:08.975Z,0
2022-12-01T01:13:05.573Z,0
2022-12-01T01:14:05.600Z,0
2022-12-01T01:15:05.599Z,0
2022-12-01T01:16:05.587Z,0
2022-12-01T01:17:06.001Z,0
2022-12-01T01:18:08.384Z,0
2022-12-01T01:19:05.591Z,0
2022-12-01T01:20:05.599Z,0
2022-12-01T01:21:05.577Z,0
2022-12-01T01:22:05.619Z,0
2022-12-01T01:23:11.033Z,0
2022-12-01T01:24:05.634Z,0
2022-12-01T01:25:05.610Z,0
2022-12-01T01:26:05.656Z,0
2022-12-01T01:27:05.692Z,0
2022-12-01T01:28:05.689Z,0
2022-12-01T01:29:06.656Z,0
2022-12-01T01:30:05.622Z,0
2022-12-01T01:31:05.998Z,0
2022-12-01T01:32:05.647Z,0
2022-12-01T01:33:05.631Z,0
2022-12-01T01:34:08.594Z,0
2022-12-01T01:35:05.607Z,0
2022-12-01T01:36:05.638Z,0
2022-12-01T01:37:05.647Z,0
2022-12-01T01:38:05.683Z,0
2022-12-01T01:39:05.636Z,0
2022-12-01T01:40:08.494Z,0
2022-12-01T01:41:05.648Z,0
2022-12-01T01:42:05.662Z,0
2022-12-01T01:43:05.659Z,0
2022-12-01T01:44:05.671Z,0
2022-12-01T01:45:08.604Z,0
2022-12-01T01:46:05.905Z,0
2022-12-01T01:47:05.681Z,0
2022-12-01T01:48:05.634Z,0
2022-12-01T01:49:05.638Z,0
2022-12-01T01:50:05.635Z,0
2022-12-01T01:51:08.707Z,0
2022-12-01T01:52:05.674Z,0
2022-12-01T01:53:05.653Z,0
2022-12-01T01:54:05.631Z,0
2022-12-01T01:55:05.658Z,0
2022-12-01T01:56:08.799Z,0
2022-12-01T01:57:05.652Z,0
2022-12-01T01:58:05.646Z,0
2022-12-01T01:59:05.683Z,0
2022-12-01T02:00:05.731Z,0
2022-12-01T02:01:06.061Z,0
2022-12-01T02:02:09.075Z,0
2022-12-01T02:03:05.922Z,0
2022-12-01T02:04:05.698Z,0
2022-12-01T02:05:05.772Z,0
2022-12-01T02:06:11.549Z,0
2022-12-01T02:07:08.481Z,0
2022-12-01T02:08:06.109Z,0
2022-12-01T02:09:05.723Z,0
2022-12-01T02:10:05.700Z,0
2022-12-01T02:11:05.699Z,0
2022-12-01T02:12:05.774Z,0
2022-12-01T02:13:05.730Z,0
2022-12-01T02:14:05.687Z,0
2022-12-01T02:15:05.749Z,0
2022-12-01T02:16:05.729Z,0
2022-12-01T02:17:06.078Z,0
2022-12-01T02:18:08.754Z,0
2022-12-01T02:19:05.711Z,0
2022-12-01T02:20:05.687Z,0
2022-12-01T02:21:05.675Z,0
2022-12-01T02:22:05.714Z,0
2022-12-01T02:23:05.763Z,0
2022-12-01T02:24:05.701Z,0
2022-12-01T02:25:05.732Z,0
2022-12-01T02:26:05.718Z,0
2022-12-01T02:27:05.731Z,0
2022-12-01T02:28:05.725Z,0
2022-12-01T02:29:08.798Z,0
2022-12-01T02:30:05.740Z,0
2022-12-01T02:31:06.051Z,0
2022-12-01T02:32:05.748Z,0
2022-12-01T02:33:08.157Z,0
2022-12-01T02:34:05.783Z,0
2022-12-01T02:35:05.723Z,0
2022-12-01T02:36:05.709Z,0
2022-12-01T02:37:05.730Z,0
2022-12-01T02:38:05.750Z,0
2022-12-01T02:39:05.739Z,0
2022-12-01T02:40:06.860Z,0
2022-12-01T02:41:05.767Z,0
2022-12-01T02:42:05.730Z,0
2022-12-01T02:43:05.743Z,0
2022-12-01T02:44:05.745Z,0
2022-12-01T02:45:08.804Z,0
2022-12-01T02:46:05.976Z,0
2022-12-01T02:47:05.778Z,0
2022-12-01T02:48:05.790Z,0
2022-12-01T02:49:05.731Z,0
2022-12-01T02:50:05.741Z,0
2022-12-01T02:51:08.731Z,0
2022-12-01T02:52:05.751Z,0
2022-12-01T02:53:05.753Z,0
2022-12-01T02:54:05.782Z,0
2022-12-01T02:55:05.769Z,0
2022-12-01T02:56:08.510Z,0
2022-12-01T02:57:05.757Z,0
2022-12-01T02:58:05.795Z,0
2022-12-01T02:59:05.732Z,0
2022-12-01T03:00:05.786Z,0
2022-12-01T03:01:06.051Z,0
2022-12-01T03:02:05.793Z,0
2022-12-01T03:03:06.175Z,0
2022-12-01T03:04:05.781Z,0
2022-12-01T03:05:05.731Z,0
2022-12-01T03:06:05.769Z,0
2022-12-01T03:07:05.761Z,0
2022-12-01T03:08:06.022Z,0
2022-12-01T03:09:05.774Z,0
2022-12-01T03:10:05.781Z,0
2022-12-01T03:11:05.748Z,0
2022-12-01T03:12:05.635Z,0
2022-12-01T03:13:05.781Z,0
2022-12-01T03:14:05.800Z,0
2022-12-01T03:15:05.794Z,0
2022-12-01T03:16:06.120Z,0
2022-12-01T03:17:05.763Z,0
2022-12-01T03:18:05.802Z,0
2022-12-01T03:19:05.804Z,0
2022-12-01T03:20:05.829Z,0
2022-12-01T03:21:05.785Z,0
2022-12-01T03:22:05.836Z,0
2022-12-01T03:23:08.827Z,0
2022-12-01T03:24:05.804Z,0
2022-12-01T03:25:05.779Z,0
2022-12-01T03:26:05.797Z,0
2022-12-01T03:27:05.796Z,0
2022-12-01T03:28:27.772Z,0
2022-12-01T03:29:05.787Z,0
2022-12-01T03:30:05.852Z,0
2022-12-01T03:31:06.073Z,0
2022-12-01T03:32:05.787Z,0
2022-12-01T03:33:05.828Z,0
2022-12-01T03:34:08.839Z,0
2022-12-01T03:35:05.793Z,0
2022-12-01T03:36:05.848Z,0
2022-12-01T03:37:05.821Z,0
2022-12-01T03:38:05.857Z,0
2022-12-01T03:39:08.837Z,0
2022-12-01T03:40:07.930Z,0
2022-12-01T03:41:05.822Z,0
2022-12-01T03:42:05.838Z,0
2022-12-01T03:43:05.859Z,0
2022-12-01T03:44:06.662Z,0
2022-12-01T03:45:08.933Z,0
2022-12-01T03:46:06.181Z,0
2022-12-01T03:47:05.909Z,0
2022-12-01T03:48:05.833Z,0
2022-12-01T03:49:05.819Z,0
2022-12-01T03:50:09.151Z,0
2022-12-01T03:51:05.855Z,0
2022-12-01T03:52:05.919Z,0
2022-12-01T03:53:08.993Z,0
2022-12-01T03:54:05.903Z,0
2022-12-01T03:55:05.856Z,0
2022-12-01T03:56:08.923Z,0
2022-12-01T03:57:05.853Z,0
2022-12-01T03:58:05.862Z,0
2022-12-01T03:59:05.860Z,0
2022-12-01T04:00:05.845Z,0
2022-12-01T04:01:08.888Z,0
2022-12-01T04:02:06.269Z,0
2022-12-01T04:03:06.354Z,0
2022-12-01T04:04:05.847Z,0
2022-12-01T04:05:05.875Z,0
2022-12-01T04:06:05.901Z,0
2022-12-01T04:07:08.651Z,0
2022-12-01T04:08:06.372Z,0
2022-12-01T04:09:05.879Z,0
2022-12-01T04:10:05.904Z,0
2022-12-01T04:11:05.853Z,0
2022-12-01T04:12:08.858Z,0
2022-12-01T04:13:05.880Z,0
2022-12-01T04:14:05.863Z,0
2022-12-01T04:15:05.882Z,0
2022-12-01T04:16:06.181Z,0
2022-12-01T04:17:05.860Z,0
2022-12-01T04:18:08.726Z,0
2022-12-01T04:19:05.852Z,0
2022-12-01T04:20:05.881Z,0
2022-12-01T04:21:05.859Z,0
2022-12-01T04:22:05.929Z,0
2022-12-01T04:23:07.026Z,0
2022-12-01T04:24:05.931Z,0
2022-12-01T04:25:05.905Z,0
2022-12-01T04:26:06.698Z,0
2022-12-01T04:27:05.881Z,0
2022-12-01T04:28:05.907Z,0
2022-12-01T04:29:05.883Z,0
2022-12-01T04:30:05.887Z,0
2022-12-01T04:31:06.333Z,0
2022-12-01T04:32:05.900Z,0
2022-12-01T04:33:05.917Z,0
2022-12-01T04:34:08.946Z,0
2022-12-01T04:35:05.901Z,0
2022-12-01T04:36:05.958Z,0
2022-12-01T04:37:05.890Z,0
2022-12-01T04:38:06.004Z,0
2022-12-01T04:39:05.934Z,0
2022-12-01T04:40:05.956Z,0
2022-12-01T04:41:05.922Z,0
2022-12-01T04:42:05.961Z,0
2022-12-01T04:43:05.938Z,0
2022-12-01T04:44:05.933Z,0
2022-12-01T04:45:08.993Z,0
2022-12-01T04:46:05.946Z,0
2022-12-01T04:47:06.330Z,0
2022-12-01T04:48:05.976Z,0
2022-12-01T04:49:05.960Z,0
2022-12-01T04:50:05.974Z,0
2022-12-01T04:51:05.916Z,0
2022-12-01T04:52:05.899Z,0
2022-12-01T04:53:06.082Z,0
2022-12-01T04:54:05.972Z,0
2022-12-01T04:55:05.923Z,0
2022-12-01T04:56:09.029Z,0
2022-12-01T04:57:05.944Z,0
2022-12-01T04:58:06.018Z,0
2022-12-01T04:59:05.924Z,0
2022-12-01T05:00:06.021Z,0
2022-12-01T05:01:06.399Z,0
2022-12-01T05:02:06.228Z,0
2022-12-01T05:03:08.583Z,0
2022-12-01T05:04:05.957Z,0
2022-12-01T05:05:05.991Z,0
2022-12-01T05:06:05.963Z,0
2022-12-01T05:07:08.742Z,0
2022-12-01T05:08:06.253Z,0
2022-12-01T05:09:05.999Z,0
2022-12-01T05:10:05.988Z,0
2022-12-01T05:11:05.958Z,0
2022-12-01T05:12:09.017Z,0
2022-12-01T05:13:06.007Z,0
2022-12-01T05:14:05.975Z,0
2022-12-01T05:15:06.035Z,0
2022-12-01T05:16:06.369Z,0
2022-12-01T05:17:06.039Z,0
2022-12-01T05:18:09.168Z,0
2022-12-01T05:19:06.258Z,0
2022-12-01T05:20:06.062Z,0
2022-12-01T05:21:05.994Z,0
2022-12-01T05:22:05.998Z,0
2022-12-01T05:23:21.673Z,0
2022-12-01T05:24:05.987Z,0
2022-12-01T05:25:05.964Z,0
2022-12-01T05:26:06.009Z,0
2022-12-01T05:27:06.015Z,0
2022-12-01T05:28:06.075Z,0
2022-12-01T05:29:06.003Z,0
2022-12-01T05:30:06.294Z,0
2022-12-01T05:31:06.256Z,0
2022-12-01T05:32:06.279Z,0
2022-12-01T05:33:06.009Z,0
2022-12-01T05:34:05.983Z,0
2022-12-01T05:35:06.000Z,0
2022-12-01T05:36:05.998Z,0
2022-12-01T05:37:06.005Z,0
2022-12-01T05:38:12.868Z,0
2022-12-01T05:39:06.081Z,0
2022-12-01T05:40:06.001Z,0
2022-12-01T05:41:06.011Z,0
2022-12-01T05:42:06.048Z,0
2022-12-01T05:43:06.024Z,0
2022-12-01T05:44:06.074Z,0
2022-12-01T05:45:06.043Z,0
2022-12-01T05:46:06.488Z,0
2022-12-01T05:47:05.851Z,0
2022-12-01T05:48:05.986Z,0
2022-12-01T05:49:06.013Z,0
2022-12-01T05:50:12.051Z,0
2022-12-01T05:51:06.003Z,0
2022-12-01T05:52:06.043Z,0
2022-12-01T05:53:06.019Z,0
2022-12-01T05:54:06.031Z,0
2022-12-01T05:55:06.010Z,0
2022-12-01T05:56:06.027Z,0
2022-12-01T05:57:06.056Z,0
2022-12-01T05:58:06.050Z,0
2022-12-01T05:59:06.047Z,0
2022-12-01T06:00:06.133Z,0
2022-12-01T06:01:09.108Z,0
2022-12-01T06:02:06.313Z,0
2022-12-01T06:03:06.149Z,0
2022-12-01T06:04:06.258Z,0
2022-12-01T06:05:07.084Z,0
2022-12-01T06:06:08.938Z,0
2022-12-01T06:07:06.074Z,0
2022-12-01T06:08:07.365Z,0
2022-12-01T06:09:06.074Z,0
2022-12-01T06:10:08.591Z,0
2022-12-01T06:11:06.098Z,0
2022-12-01T06:12:08.852Z,0
2022-12-01T06:13:06.065Z,0
2022-12-01T06:14:06.132Z,0
2022-12-01T06:15:06.049Z,0
2022-12-01T06:16:06.109Z,0
2022-12-01T06:17:09.305Z,0
2022-12-01T06:18:06.076Z,0
2022-12-01T06:19:06.069Z,0
2022-12-01T06:20:06.058Z,0
2022-12-01T06:21:06.074Z,0
2022-12-01T06:22:06.068Z,0
2022-12-01T06:23:09.270Z,0
2022-12-01T06:24:06.083Z,0
2022-12-01T06:25:06.079Z,0
2022-12-01T06:26:06.070Z,0
2022-12-01T06:27:05.932Z,0
2022-12-01T06:28:09.083Z,0
2022-12-01T06:29:06.101Z,0
2022-12-01T06:30:06.123Z,0
2022-12-01T06:31:10.181Z,0
2022-12-01T06:32:06.344Z,0
2022-12-01T06:33:06.210Z,0
2022-12-01T06:34:09.016Z,0
2022-12-01T06:35:06.138Z,0
2022-12-01T06:36:06.117Z,0
2022-12-01T06:37:06.081Z,4
2022-12-01T06:38:06.328Z,4
2022-12-01T06:39:06.816Z,0
2022-12-01T06:40:06.082Z,0
2022-12-01T06:41:06.101Z,0
2022-12-01T06:42:06.094Z,0
2022-12-01T06:43:06.099Z,4
2022-12-01T06:44:06.126Z,4
2022-12-01T06:45:08.893Z,0
2022-12-01T06:46:09.197Z,0
2022-12-01T06:47:06.144Z,4
2022-12-01T06:48:06.106Z,4
2022-12-01T06:49:06.162Z,4
2022-12-01T06:50:08.989Z,0
2022-12-01T06:51:06.157Z,4
2022-12-01T06:52:08.025Z,4
2022-12-01T06:53:06.332Z,4
2022-12-01T06:54:12.133Z,4
2022-12-01T06:55:06.508Z,4
2022-12-01T06:56:09.418Z,8
2022-12-01T06:57:06.765Z,4
2022-12-01T06:58:07.062Z,8
2022-12-01T06:59:07.009Z,8
2022-12-01T07:00:07.033Z,8
2022-12-01T07:01:09.573Z,12
2022-12-01T07:02:06.616Z,12
2022-12-01T07:03:06.301Z,8
2022-12-01T07:04:06.134Z,12
2022-12-01T07:05:06.274Z,12
2022-12-01T07:06:06.158Z,12
2022-12-01T07:07:05.987Z,12
2022-12-01T07:08:06.997Z,16
2022-12-01T07:09:06.156Z,16
2022-12-01T07:10:06.205Z,16
2022-12-01T07:11:05.993Z,12
2022-12-01T07:12:08.933Z,12
2022-12-01T07:13:06.138Z,16
2022-12-01T07:14:06.132Z,16
2022-12-01T07:15:06.175Z,16
2022-12-01T07:16:06.172Z,16
2022-12-01T07:17:06.621Z,20
2022-12-01T07:18:06.018Z,20
2022-12-01T07:19:06.260Z,24
2022-12-01T07:20:06.172Z,24
2022-12-01T07:21:06.235Z,24
2022-12-01T07:22:06.233Z,28
2022-12-01T07:23:09.197Z,32
2022-12-01T07:24:05.848Z,28
2022-12-01T07:25:06.206Z,32
2022-12-01T07:26:06.173Z,32
2022-12-01T07:27:06.229Z,36
2022-12-01T07:28:06.227Z,36
2022-12-01T07:29:06.155Z,36
2022-12-01T07:30:06.212Z,40
2022-12-01T07:31:06.703Z,44
2022-12-01T07:32:06.195Z,40
2022-12-01T07:33:06.286Z,44
2022-12-01T07:34:09.001Z,48
2022-12-01T07:35:06.282Z,48
2022-12-01T07:36:06.200Z,48
2022-12-01T07:37:05.918Z,48
2022-12-01T07:38:06.190Z,52
2022-12-01T07:39:09.239Z,52
2022-12-01T07:40:06.201Z,52
2022-12-01T07:41:06.359Z,56
2022-12-01T07:42:06.173Z,60
2022-12-01T07:43:06.204Z,60
2022-12-01T07:44:06.327Z,60
2022-12-01T07:45:09.241Z,68
2022-12-01T07:46:06.564Z,68
2022-12-01T07:47:06.200Z,72
2022-12-01T07:48:06.235Z,76
2022-12-01T07:49:06.266Z,80
2022-12-01T07:50:07.157Z,80
2022-12-01T07:51:06.412Z,80
2022-12-01T07:52:06.223Z,84
2022-12-01T07:53:06.289Z,88
2022-12-01T07:54:06.221Z,92
2022-12-01T07:55:06.321Z,96
2022-12-01T07:56:16.159Z,100
2022-12-01T07:57:06.233Z,100
2022-12-01T07:58:06.222Z,104
2022-12-01T07:59:06.292Z,108
2022-12-01T08:00:06.374Z,112
2022-12-01T08:01:06.433Z,112
2022-12-01T08:02:06.536Z,112
2022-12-01T08:03:06.552Z,116
2022-12-01T08:04:06.340Z,112
2022-12-01T08:05:06.363Z,108
2022-12-01T08:06:06.266Z,112
2022-12-01T08:07:06.332Z,112
2022-12-01T08:08:06.669Z,112
2022-12-01T08:09:06.305Z,116
2022-12-01T08:10:06.300Z,116
2022-12-01T08:11:06.236Z,120
2022-12-01T08:12:06.265Z,120
2022-12-01T08:13:06.287Z,120
2022-12-01T08:14:06.291Z,124
2022-12-01T08:15:06.296Z,124
2022-12-01T08:16:06.571Z,120
2022-12-01T08:17:09.063Z,124
2022-12-01T08:18:06.261Z,124
2022-12-01T08:19:06.233Z,128
2022-12-01T08:20:06.292Z,132
2022-12-01T08:21:06.328Z,132
2022-12-01T08:22:06.297Z,136
2022-12-01T08:23:06.330Z,140
2022-12-01T08:24:06.285Z,148
2022-12-01T08:25:06.352Z,148
2022-12-01T08:26:06.273Z,152
2022-12-01T08:27:06.330Z,152
2022-12-01T08:28:09.314Z,156
2022-12-01T08:29:06.263Z,160
2022-12-01T08:30:06.329Z,168
2022-12-01T08:31:06.503Z,172
2022-12-01T08:32:06.277Z,188
2022-12-01T08:33:09.268Z,196
2022-12-01T08:34:06.342Z,204
2022-12-01T08:35:06.331Z,208
2022-12-01T08:36:06.352Z,212
2022-12-01T08:37:06.294Z,216
2022-12-01T08:38:06.299Z,224
2022-12-01T08:39:10.901Z,228
2022-12-01T08:40:06.333Z,232
2022-12-01T08:41:06.327Z,232
2022-12-01T08:42:06.300Z,236
2022-12-01T08:43:06.501Z,236
2022-12-01T08:44:09.481Z,240
2022-12-01T08:45:06.633Z,244
2022-12-01T08:46:06.565Z,244
2022-12-01T08:47:06.403Z,244
2022-12-01T08:48:06.304Z,244
2022-12-01T08:49:06.340Z,248
2022-12-01T08:50:09.085Z,248
2022-12-01T08:51:06.313Z,248
2022-12-01T08:52:06.341Z,252
2022-12-01T08:53:06.328Z,248
2022-12-01T08:54:06.343Z,248
2022-12-01T08:55:09.488Z,248
2022-12-01T08:56:06.351Z,248
2022-12-01T08:57:06.351Z,248
2022-12-01T08:58:06.337Z,248
2022-12-01T08:59:06.163Z,244
2022-12-01T09:00:06.387Z,244
2022-12-01T09:01:09.071Z,240
2022-12-01T09:02:12.442Z,236
2022-12-01T09:03:06.604Z,232
2022-12-01T09:04:06.802Z,228
2022-12-01T09:05:06.164Z,224
2022-12-01T09:06:09.126Z,224
2022-12-01T09:07:06.345Z,224
2022-12-01T09:08:06.692Z,224
2022-12-01T09:09:06.369Z,220
2022-12-01T09:10:06.356Z,220
2022-12-01T09:11:06.411Z,216
2022-12-01T09:12:09.458Z,212
2022-12-01T09:13:09.321Z,212
2022-12-01T09:14:06.363Z,208
2022-12-01T09:15:06.351Z,208
2022-12-01T09:16:06.580Z,212
2022-12-01T09:17:07.393Z,208
2022-12-01T09:18:06.378Z,208
2022-12-01T09:19:06.377Z,216
2022-12-01T09:20:06.348Z,216
2022-12-01T09:21:06.500Z,220
2022-12-01T09:22:06.382Z,224
2022-12-01T09:23:09.209Z,228
2022-12-01T09:24:06.381Z,232
2022-12-01T09:25:06.421Z,236
2022-12-01T09:26:08.704Z,240
2022-12-01T09:27:06.401Z,244
2022-12-01T09:28:09.419Z,252
2022-12-01T09:29:06.387Z,264
2022-12-01T09:30:06.403Z,276
2022-12-01T09:31:06.622Z,288
2022-12-01T09:32:06.394Z,304
2022-12-01T09:33:06.359Z,316
2022-12-01T09:34:09.405Z,324
2022-12-01T09:35:06.387Z,328
2022-12-01T09:36:06.393Z,324
2022-12-01T09:37:06.373Z,320
2022-12-01T09:38:06.211Z,316
2022-12-01T09:39:09.205Z,308
2022-12-01T09:40:06.382Z,304
2022-12-01T09:41:06.664Z,304
2022-12-01T09:42:12.247Z,296
2022-12-01T09:43:06.411Z,296
2022-12-01T09:44:06.432Z,296
2022-12-01T09:45:06.412Z,296
2022-12-01T09:46:06.395Z,300
2022-12-01T09:47:06.725Z,300
2022-12-01T09:48:06.389Z,308
2022-12-01T09:49:06.423Z,316
2022-12-01T09:50:09.185Z,324
2022-12-01T09:51:06.395Z,328
2022-12-01T09:52:06.388Z,332
2022-12-01T09:53:06.437Z,340
2022-12-01T09:54:06.432Z,344
2022-12-01T09:55:06.448Z,352
2022-12-01T09:56:17.799Z,352
2022-12-01T09:57:06.425Z,360
2022-12-01T09:58:06.464Z,368
2022-12-01T09:59:06.464Z,376
2022-12-01T10:00:06.416Z,380
2022-12-01T10:01:09.821Z,380
2022-12-01T10:02:06.716Z,384
2022-12-01T10:03:06.404Z,388
2022-12-01T10:04:06.396Z,388
2022-12-01T10:05:06.817Z,396
2022-12-01T10:06:36.885Z,396
2022-12-01T10:07:06.399Z,396
2022-12-01T10:08:06.714Z,396
2022-12-01T10:09:06.404Z,392
2022-12-01T10:10:06.395Z,404
2022-12-01T10:11:06.424Z,428
2022-12-01T10:12:09.253Z,436
2022-12-01T10:13:06.445Z,432
2022-12-01T10:14:06.409Z,424
2022-12-01T10:15:06.448Z,412
2022-12-01T10:16:06.947Z,420
2022-12-01T10:17:09.226Z,408
2022-12-01T10:18:06.434Z,404
2022-12-01T10:19:06.429Z,400
2022-12-01T10:20:06.481Z,428
2022-12-01T10:21:06.432Z,432
2022-12-01T10:22:06.422Z,432
2022-12-01T10:23:06.445Z,428
2022-12-01T10:24:06.439Z,436
2022-12-01T10:25:06.417Z,416
2022-12-01T10:26:06.462Z,420
2022-12-01T10:27:06.417Z,408
2022-12-01T10:28:06.452Z,404
2022-12-01T10:29:06.430Z,412
2022-12-01T10:30:06.473Z,412
2022-12-01T10:31:06.694Z,400
2022-12-01T10:32:06.587Z,412
2022-12-01T10:33:06.463Z,404
2022-12-01T10:34:06.463Z,400
2022-12-01T10:35:06.443Z,424
2022-12-01T10:36:06.447Z,420
2022-12-01T10:37:06.450Z,420
2022-12-01T10:38:06.940Z,420
2022-12-01T10:39:06.438Z,428
2022-12-01T10:40:06.433Z,404
2022-12-01T10:41:06.501Z,412
2022-12-01T10:42:06.545Z,408
2022-12-01T10:43:06.444Z,408
2022-12-01T10:44:09.408Z,408
2022-12-01T10:45:06.435Z,400
2022-12-01T10:46:06.843Z,396
2022-12-01T10:47:06.589Z,392
2022-12-01T10:48:06.445Z,380
2022-12-01T10:49:06.338Z,372
2022-12-01T10:50:06.504Z,364
2022-12-01T10:51:06.492Z,364
2022-12-01T10:52:06.448Z,368
2022-12-01T10:53:06.328Z,364
2022-12-01T10:54:06.435Z,356
2022-12-01T10:55:09.326Z,352
2022-12-01T10:56:06.327Z,352
2022-12-01T10:57:06.466Z,356
2022-12-01T10:58:14.108Z,348
2022-12-01T10:59:06.462Z,344
2022-12-01T11:00:09.552Z,344
2022-12-01T11:01:08.375Z,340
2022-12-01T11:02:10.750Z,328
2022-12-01T11:03:07.450Z,328
2022-12-01T11:04:06.643Z,336
2022-12-01T11:05:06.481Z,340
2022-12-01T11:06:08.682Z,336
2022-12-01T11:07:06.488Z,348
2022-12-01T11:08:06.757Z,364
2022-12-01T11:09:06.467Z,372
2022-12-01T11:10:06.507Z,400
2022-12-01T11:11:08.221Z,412
2022-12-01T11:12:06.526Z,348
2022-12-01T11:13:06.503Z,340
2022-12-01T11:14:06.471Z,336
2022-12-01T11:15:06.508Z,340
2022-12-01T11:16:06.757Z,344
2022-12-01T11:17:09.823Z,344
2022-12-01T11:18:06.476Z,336
2022-12-01T11:19:06.811Z,336
2022-12-01T11:20:06.876Z,336
2022-12-01T11:21:06.549Z,320
2022-12-01T11:22:09.497Z,312
2022-12-01T11:23:06.520Z,308
2022-12-01T11:24:06.513Z,312
2022-12-01T11:25:06.660Z,316
2022-12-01T11:26:06.563Z,320
2022-12-01T11:27:06.515Z,328
2022-12-01T11:28:09.582Z,336
2022-12-01T11:29:06.504Z,340
2022-12-01T11:30:06.526Z,344
2022-12-01T11:31:06.543Z,348
2022-12-01T11:32:07.251Z,356
2022-12-01T11:33:09.561Z,356
2022-12-01T11:34:06.522Z,364
2022-12-01T11:35:06.576Z,368
2022-12-01T11:36:06.702Z,372
2022-12-01T11:37:06.538Z,376
2022-12-01T11:38:35.484Z,396
2022-12-01T11:39:09.292Z,380
2022-12-01T11:40:06.529Z,384
2022-12-01T11:41:06.600Z,396
2022-12-01T11:42:06.560Z,384
2022-12-01T11:43:06.557Z,376
2022-12-01T12:15:56.644Z,332
2022-12-01T12:17:09.523Z,340
2022-12-01T12:18:06.577Z,340
2022-12-01T12:19:06.275Z,348
2022-12-01T12:20:16.824Z,344
2022-12-01T12:21:06.397Z,336
2022-12-01T12:22:06.271Z,340
2022-12-01T12:23:06.265Z,332
2022-12-01T12:24:06.278Z,332
2022-12-01T12:25:06.396Z,332
2022-12-01T12:26:06.307Z,328
2022-12-01T12:27:06.284Z,320
2022-12-01T12:28:07.347Z,316
2022-12-01T12:29:13.741Z,328
2022-12-01T12:30:06.340Z,312
2022-12-01T12:31:06.813Z,312
2022-12-01T12:32:06.326Z,324
2022-12-01T12:33:09.354Z,316
2022-12-01T12:34:06.313Z,312
2022-12-01T12:35:06.279Z,316
2022-12-01T12:36:06.305Z,320
2022-12-01T12:37:06.306Z,320
2022-12-01T12:38:06.369Z,312
2022-12-01T12:39:16.519Z,308
2022-12-01T12:40:06.205Z,304
2022-12-01T12:41:06.384Z,300
2022-12-01T12:42:06.368Z,296
2022-12-01T12:43:06.313Z,288
2022-12-01T12:44:09.329Z,280
2022-12-01T12:45:06.323Z,272
2022-12-01T12:46:06.543Z,268
2022-12-01T12:47:06.417Z,256
2022-12-01T12:48:06.367Z,244
2022-12-01T12:49:36.362Z,228
2022-12-01T12:50:06.365Z,220
2022-12-01T12:51:06.185Z,216
2022-12-01T12:52:13.788Z,216
2022-12-01T12:53:06.312Z,208
2022-12-01T12:54:06.691Z,204
2022-12-01T12:55:06.419Z,196
2022-12-01T12:56:06.369Z,192
2022-12-01T12:57:06.365Z,188
2022-12-01T12:58:13.656Z,184
2022-12-01T12:59:06.186Z,188
2022-12-01T13:00:06.350Z,188
2022-12-01T13:01:06.469Z,192
2022-12-01T13:02:06.631Z,200
2022-12-01T13:03:06.861Z,212
2022-12-01T13:04:06.404Z,232
2022-12-01T13:05:06.401Z,228
2022-12-01T13:06:06.397Z,236
2022-12-01T13:07:06.406Z,236
2022-12-01T13:08:06.671Z,236
2022-12-01T13:09:06.371Z,224
2022-12-01T13:10:07.990Z,212
2022-12-01T13:11:09.167Z,212
2022-12-01T13:12:06.407Z,208
2022-12-01T13:13:06.405Z,204
2022-12-01T13:14:06.483Z,208
2022-12-01T13:15:08.260Z,208
2022-12-01T13:16:06.793Z,212
2022-12-01T13:17:06.371Z,216
2022-12-01T13:18:06.368Z,208
2022-12-01T13:19:06.471Z,208
2022-12-01T13:20:06.452Z,200
2022-12-01T13:21:06.771Z,196
2022-12-01T13:22:09.855Z,196
2022-12-01T13:23:06.460Z,196
2022-12-01T13:24:06.415Z,192
2022-12-01T13:25:06.348Z,204
2022-12-01T13:26:06.449Z,208
2022-12-01T13:27:09.393Z,212
2022-12-01T13:28:06.411Z,216
2022-12-01T13:29:06.409Z,220
2022-12-01T13:30:06.414Z,216
2022-12-01T13:31:06.763Z,224
2022-12-01T13:32:06.407Z,228
2022-12-01T13:33:09.474Z,204
2022-12-01T13:34:06.412Z,192
2022-12-01T13:35:06.504Z,184
2022-12-01T13:36:51.792Z,176
2022-12-01T13:37:06.375Z,180
2022-12-01T13:38:09.724Z,168
2022-12-01T13:39:06.412Z,160
2022-12-01T13:40:06.657Z,152
2022-12-01T13:41:06.437Z,148
2022-12-01T13:42:06.414Z,140
2022-12-01T13:43:13.358Z,132
2022-12-01T13:44:07.485Z,124
2022-12-01T13:45:06.425Z,120
2022-12-01T13:46:06.606Z,120
2022-12-01T13:47:06.739Z,124
2022-12-01T13:48:06.460Z,120
2022-12-01T13:49:06.663Z,120
2022-12-01T13:50:06.416Z,116
2022-12-01T13:51:06.534Z,116
2022-12-01T13:52:06.445Z,116
2022-12-01T13:53:06.419Z,116
2022-12-01T13:54:06.451Z,116
2022-12-01T13:55:09.465Z,120
2022-12-01T13:56:06.451Z,116
2022-12-01T13:57:06.452Z,120
2022-12-01T13:58:06.446Z,120
2022-12-01T13:59:06.417Z,120
2022-12-01T14:00:09.507Z,120
2022-12-01T14:01:17.568Z,112
2022-12-01T14:02:06.756Z,108
2022-12-01T14:03:06.773Z,108
2022-12-01T14:04:06.459Z,104
2022-12-01T14:05:06.490Z,104
2022-12-01T14:06:09.519Z,104
2022-12-01T14:07:06.487Z,104
2022-12-01T14:08:06.827Z,104
2022-12-01T14:09:06.557Z,104
2022-12-01T14:10:06.594Z,104
2022-12-01T14:11:09.294Z,104
2022-12-01T14:12:06.723Z,108
2022-12-01T14:13:06.587Z,108
2022-12-01T14:14:06.583Z,108
2022-12-01T14:15:06.778Z,112
2022-12-01T14:16:06.975Z,108
2022-12-01T14:17:09.459Z,108
2022-12-01T14:18:06.454Z,104
2022-12-01T14:19:06.634Z,104
2022-12-01T14:20:06.470Z,100
2022-12-01T14:21:06.467Z,96
2022-12-01T14:22:09.637Z,92
2022-12-01T14:23:06.460Z,88
2022-12-01T14:24:06.471Z,84
2022-12-01T14:25:06.461Z,80
2022-12-01T14:26:06.506Z,76
2022-12-01T14:27:06.468Z,76
2022-12-01T14:28:06.301Z,72
2022-12-01T14:29:06.488Z,72
2022-12-01T14:30:06.476Z,72
2022-12-01T14:31:06.999Z,68
2022-12-01T14:32:06.478Z,68
2022-12-01T14:33:09.243Z,64
2022-12-01T14:34:06.471Z,64
2022-12-01T14:35:06.484Z,64
2022-12-01T14:36:06.391Z,64
2022-12-01T14:37:06.490Z,60
2022-12-01T14:38:06.574Z,56
2022-12-01T14:39:06.465Z,56
2022-12-01T14:40:06.630Z,56
2022-12-01T14:41:06.673Z,56
2022-12-01T14:42:06.512Z,52
2022-12-01T14:43:06.481Z,56
2022-12-01T14:44:10.977Z,52
2022-12-01T14:45:06.758Z,48
2022-12-01T14:46:06.581Z,52
2022-12-01T14:47:06.713Z,48
2022-12-01T14:48:06.554Z,48
2022-12-01T14:49:06.473Z,48
2022-12-01T14:50:06.536Z,44